Time;durP1;ratioP1;P1;durP2;ratioP2;P2;SDS_P1;SDS_P2;PMS_P1;PMS_P2;Temp;Humidity;BMP_temperature;BMP_pressure;BME280_temperature;BME280_humidity;BME280_pressure;Samples;Min_cycle;Max_cycle;Signal;HPM_P1;HPM_P2
2022/08/27 00:02:24;;;;;;;47.45;29.92;;;17.40;1.00;;;;;;5058663;28;20133;-85
2022/08/27 00:05:14;;;;;;;37.65;26.05;;;17.50;1.00;;;;;;5065751;28;20052;-85
2022/08/27 00:08:07;;;;;;;36.35;27.45;;;17.50;1.00;;;;;;5078016;28;20098;-85
2022/08/27 00:10:55;;;;;;;35.75;24.30;;;17.60;1.00;;;;;;5073013;28;20523;-85
2022/08/27 00:13:46;;;;;;;30.48;21.80;;;17.50;1.00;;;;;;5067530;28;20052;-85
2022/08/27 00:16:34;;;;;;;33.78;22.48;;;17.40;1.00;;;;;;5069084;28;20056;-84
2022/08/27 00:19:21;;;;;;;32.10;22.73;;;17.30;1.00;;;;;;5073560;28;20084;-85
2022/08/27 00:22:12;;;;;;;36.42;23.10;;;17.30;1.00;;;;;;5072252;28;20055;-85
2022/08/27 00:25:02;;;;;;;33.53;23.98;;;17.30;1.00;;;;;;5074059;28;20497;-86
2022/08/27 00:27:50;;;;;;;33.35;23.85;;;17.30;1.00;;;;;;5054905;28;20048;-84
2022/08/27 00:30:38;;;;;;;34.72;25.27;;;17.30;1.00;;;;;;5072378;28;20133;-84
2022/08/27 00:33:26;;;;;;;35.83;26.10;;;17.40;1.00;;;;;;5071228;28;20119;-85
2022/08/27 00:36:14;;;;;;;35.72;26.65;;;17.40;1.00;;;;;;5058728;28;20170;-85
2022/08/27 00:39:01;;;;;;;37.67;27.38;;;17.40;1.00;;;;;;5072186;28;20151;-85
2022/08/27 00:41:49;;;;;;;38.40;27.13;;;17.40;1.00;;;;;;5075575;28;20123;-85
2022/08/27 00:44:37;;;;;;;34.95;25.77;;;17.40;1.00;;;;;;5074383;28;20439;-84
2022/08/27 00:47:27;;;;;;;41.47;27.85;;;17.40;1.00;;;;;;5058127;28;20067;-84
2022/08/27 00:50:31;;;;;;;37.72;27.02;;;17.30;1.00;;;;;;5069075;28;20463;-85
2022/08/27 00:53:25;;;;;;;46.33;29.38;;;17.30;1.00;;;;;;5072583;28;20052;-84
2022/08/27 00:56:20;;;;;;;38.65;26.45;;;17.30;1.00;;;;;;5069433;28;20099;-85
2022/08/27 00:59:07;;;;;;;37.63;28.42;;;17.30;1.00;;;;;;5071930;28;20098;-85
2022/08/27 01:05:08;;;;;;;49.72;32.50;;;17.30;1.00;;;;;;5072934;28;20044;-85
2022/08/27 01:08:02;;;;;;;40.83;30.38;;;17.30;1.00;;;;;;5054560;28;20086;-85
2022/08/27 01:10:53;;;;;;;39.88;29.08;;;17.30;1.00;;;;;;5058208;28;20052;-86
2022/08/27 01:13:40;;;;;;;54.85;33.38;;;17.40;1.00;;;;;;5065712;28;20131;-85
2022/08/27 01:16:53;;;;;;;43.97;31.73;;;17.40;1.00;;;;;;5079071;28;20051;-85
2022/08/27 01:19:43;;;;;;;47.25;32.20;;;17.40;1.00;;;;;;5072575;28;20124;-85
2022/08/27 01:22:43;;;;;;;47.42;33.42;;;17.40;1.00;;;;;;5073035;28;20082;-84
2022/08/27 01:25:33;;;;;;;49.85;32.72;;;17.50;1.00;;;;;;5076661;28;20048;-85
2022/08/27 01:28:21;;;;;;;46.30;33.42;;;17.40;1.00;;;;;;5063324;28;20084;-84
2022/08/27 01:31:13;;;;;;;32.47;24.00;;;17.40;1.00;;;;;;5076324;28;20068;-85
2022/08/27 01:34:04;;;;;;;48.45;34.17;;;17.40;1.00;;;;;;5068945;28;20129;-85
2022/08/27 01:36:52;;;;;;;51.05;34.35;;;17.40;1.00;;;;;;5078401;28;20429;-84
2022/08/27 01:39:46;;;;;;;52.38;35.70;;;17.40;1.00;;;;;;5076561;28;20067;-84
2022/08/27 01:42:40;;;;;;;53.60;37.03;;;17.40;2.10;;;;;;5062968;28;20407;-85
2022/08/27 01:45:33;;;;;;;56.65;38.75;;;17.40;11.80;;;;;;5076326;28;20578;-85
2022/08/27 01:48:21;;;;;;;60.28;39.95;;;17.50;9.10;;;;;;5075748;28;20513;-84
2022/08/27 01:51:08;;;;;;;59.08;37.83;;;17.50;7.70;;;;;;5068869;28;20078;-85
2022/08/27 01:53:56;;;;;;;57.85;39.05;;;17.50;14.70;;;;;;5077156;28;20390;-84
2022/08/27 01:56:43;;;;;;;63.88;39.80;;;17.50;22.10;;;;;;5069399;28;20517;-85
2022/08/27 01:59:33;;;;;;;57.05;37.30;;;17.50;22.10;;;;;;5062355;28;20416;-85
2022/08/27 02:02:25;;;;;;;53.60;35.58;;;17.50;19.20;;;;;;5075199;28;20376;-85
2022/08/27 02:05:14;;;;;;;51.65;37.00;;;17.60;16.40;;;;;;5084216;28;20439;-85
2022/08/27 02:08:01;;;;;;;56.20;38.10;;;17.60;5.60;;;;;;5070654;28;20120;-85
2022/08/27 02:10:50;;;;;;;57.67;36.42;;;17.60;22.90;;;;;;5061950;28;20116;-83
2022/08/27 02:13:38;;;;;;;50.58;34.80;;;17.60;83.80;;;;;;5068825;28;20057;-85
2022/08/27 02:16:25;;;;;;;54.47;38.05;;;17.60;99.90;;;;;;5078331;28;20041;-84
2022/08/27 02:19:12;;;;;;;59.30;37.88;;;17.50;99.90;;;;;;5083517;28;20123;-85
2022/08/27 02:22:00;;;;;;;62.55;40.50;;;17.40;99.90;;;;;;5076480;28;20432;-85
2022/08/27 02:24:47;;;;;;;72.82;45.38;;;17.40;99.90;;;;;;5062043;28;20155;-84
2022/08/27 02:27:37;;;;;;;77.30;45.80;;;17.30;99.90;;;;;;5076289;28;20108;-84
2022/08/27 02:30:25;;;;;;;80.28;47.30;;;17.30;99.90;;;;;;5071867;28;20040;-83
2022/08/27 02:33:15;;;;;;;83.38;48.38;;;17.20;99.90;;;;;;5075037;28;20055;-84
2022/08/27 02:36:03;;;;;;;93.93;52.28;;;17.20;99.90;;;;;;5068259;28;20552;-84
2022/08/27 02:38:53;;;;;;;104.45;52.88;;;17.20;99.90;;;;;;5073271;28;20414;-84
2022/08/27 02:41:40;;;;;;;105.22;54.72;;;17.30;99.90;;;;;;5075196;28;20056;-84
2022/08/27 02:44:27;;;;;;;107.78;55.92;;;17.20;99.90;;;;;;5068493;28;20045;-84
2022/08/27 02:47:18;;;;;;;101.32;52.60;;;17.20;99.90;;;;;;5075973;28;20075;-83
2022/08/27 02:50:09;;;;;;;95.45;49.58;;;17.10;99.90;;;;;;5078911;28;20079;-84
2022/08/27 02:52:56;;;;;;;90.60;48.88;;;17.10;99.90;;;;;;5075518;28;20102;-83
2022/08/27 02:55:44;;;;;;;97.28;50.65;;;17.10;99.90;;;;;;5062167;28;20049;-83
2022/08/27 02:58:32;;;;;;;87.72;46.80;;;17.10;99.90;;;;;;5077696;28;20083;-84
2022/08/27 03:01:21;;;;;;;91.70;46.88;;;17.10;99.90;;;;;;5081101;28;20118;-84
2022/08/27 03:04:09;;;;;;;98.20;50.28;;;17.00;99.90;;;;;;5074911;28;20047;-84
2022/08/27 03:06:57;;;;;;;93.32;49.58;;;17.00;99.90;;;;;;5068003;28;20101;-83
2022/08/27 03:09:47;;;;;;;104.78;51.47;;;17.00;99.90;;;;;;5076799;28;20094;-83
2022/08/27 03:12:35;;;;;;;109.88;52.45;;;17.00;99.90;;;;;;5074507;28;20048;-83
2022/08/27 03:15:23;;;;;;;95.72;50.90;;;17.00;99.90;;;;;;5065198;28;20060;-84
2022/08/27 03:18:20;;;;;;;101.32;51.47;;;17.00;99.90;;;;;;5073331;28;20040;-84
2022/08/27 03:21:07;;;;;;;106.20;52.28;;;17.00;99.90;;;;;;5069390;28;20041;-84
2022/08/27 03:23:54;;;;;;;108.50;54.30;;;17.00;99.90;;;;;;5065786;28;20051;-85
2022/08/27 03:26:44;;;;;;;109.57;54.25;;;17.00;99.90;;;;;;5059113;28;20048;-84
2022/08/27 03:29:42;;;;;;;119.45;55.60;;;17.00;99.90;;;;;;5075285;28;20051;-85
2022/08/27 03:32:30;;;;;;;128.38;60.47;;;17.00;99.90;;;;;;5064916;28;20071;-83
2022/08/27 03:35:19;;;;;;;136.73;60.45;;;17.10;99.90;;;;;;5073631;28;20187;-82
2022/08/27 03:38:07;;;;;;;139.82;60.88;;;17.00;99.90;;;;;;5077271;28;20138;-85
2022/08/27 03:40:54;;;;;;;146.15;64.65;;;17.00;99.90;;;;;;5073707;28;20075;-84
2022/08/27 03:43:41;;;;;;;139.82;63.30;;;17.00;99.90;;;;;;5088122;28;20041;-85
2022/08/27 03:46:29;;;;;;;141.45;62.28;;;17.00;99.90;;;;;;5097260;28;20066;-83
2022/08/27 03:49:18;;;;;;;140.57;62.25;;;16.90;99.90;;;;;;5078830;28;20028;-85
2022/08/27 03:52:07;;;;;;;133.13;59.67;;;16.90;99.90;;;;;;5085233;28;20061;-84
2022/08/27 03:54:55;;;;;;;120.78;58.00;;;16.80;99.90;;;;;;5076882;28;20448;-84
2022/08/27 03:57:42;;;;;;;139.77;63.17;;;16.80;99.90;;;;;;5077069;28;20130;-85
2022/08/27 04:00:29;;;;;;;132.85;66.82;;;16.80;99.90;;;;;;5083235;28;20113;-84
2022/08/27 04:03:17;;;;;;;157.23;76.05;;;16.80;99.90;;;;;;5065879;28;20083;-84
2022/08/27 04:06:04;;;;;;;163.60;80.05;;;16.80;99.90;;;;;;5069356;28;20417;-84
2022/08/27 04:08:52;;;;;;;174.20;85.18;;;16.80;99.90;;;;;;5059547;28;20099;-84
2022/08/27 04:11:39;;;;;;;183.85;92.28;;;16.80;99.90;;;;;;5073410;28;20456;-84
2022/08/27 04:14:26;;;;;;;185.02;100.47;;;16.80;99.90;;;;;;5067007;28;20123;-85
2022/08/27 04:17:14;;;;;;;212.75;105.72;;;16.70;99.90;;;;;;5067497;28;20076;-84
2022/08/27 04:20:03;;;;;;;219.68;111.53;;;16.70;99.90;;;;;;5073758;28;20258;-84
2022/08/27 04:23:10;;;;;;;245.10;121.00;;;16.70;99.90;;;;;;5069761;28;20124;-84
2022/08/27 04:25:57;;;;;;;245.50;126.30;;;16.70;99.90;;;;;;5072701;28;20076;-83
2022/08/27 04:28:47;;;;;;;248.18;124.53;;;16.70;99.90;;;;;;5066763;28;20070;-84
2022/08/27 04:31:34;;;;;;;249.30;127.68;;;16.60;99.90;;;;;;5070017;28;20040;-84
2022/08/27 04:34:24;;;;;;;251.63;128.73;;;16.70;99.90;;;;;;5055119;28;20057;-84
2022/08/27 04:37:12;;;;;;;273.35;133.75;;;16.70;99.90;;;;;;5059193;28;20045;-86
2022/08/27 04:39:59;;;;;;;270.95;135.55;;;16.70;99.90;;;;;;5067708;28;20036;-85
2022/08/27 04:42:46;;;;;;;265.67;135.77;;;16.80;99.90;;;;;;5058475;28;20067;-87
2022/08/27 04:45:43;;;;;;;250.80;127.57;;;16.80;99.90;;;;;;5071961;28;20094;-88
2022/08/27 04:48:31;;;;;;;244.35;123.32;;;16.80;99.90;;;;;;5073698;28;20052;-87
2022/08/27 04:51:19;;;;;;;236.85;119.97;;;16.80;99.90;;;;;;5078594;28;20045;-88
2022/08/27 04:54:08;;;;;;;233.77;120.35;;;16.80;99.90;;;;;;5074635;28;20194;-88
2022/08/27 04:56:55;;;;;;;238.50;122.57;;;16.80;99.90;;;;;;5053831;28;20044;-89
2022/08/27 04:59:45;;;;;;;244.48;120.25;;;16.80;99.90;;;;;;5075495;28;20123;-88
2022/08/27 05:02:36;;;;;;;241.55;120.82;;;16.80;99.90;;;;;;5078892;28;20078;-83
2022/08/27 05:05:59;;;;;;;257.35;123.78;;;16.90;99.90;;;;;;5066675;28;20095;-84
2022/08/27 05:08:48;;;;;;;244.32;118.15;;;16.90;99.90;;;;;;5070274;28;20083;-84
2022/08/27 05:11:36;;;;;;;254.55;122.38;;;16.90;99.90;;;;;;5072591;28;20545;-85
2022/08/27 05:14:28;;;;;;;245.57;117.65;;;17.00;99.90;;;;;;5075635;28;20052;-84
2022/08/27 05:17:15;;;;;;;247.52;116.40;;;17.00;99.90;;;;;;5058043;28;20044;-84
2022/08/27 05:20:04;;;;;;;256.02;114.47;;;16.90;99.90;;;;;;5077836;28;20052;-85
2022/08/27 05:22:53;;;;;;;243.18;110.32;;;17.00;99.90;;;;;;5067440;28;20183;-85
2022/08/27 05:25:45;;;;;;;254.65;114.22;;;17.00;99.90;;;;;;5057333;28;20045;-85
2022/08/27 05:28:32;;;;;;;252.30;112.70;;;17.00;99.90;;;;;;5065309;28;20061;-84
2022/08/27 05:31:21;;;;;;;250.25;109.63;;;17.00;99.90;;;;;;5063383;28;20455;-84
2022/08/27 05:34:10;;;;;;;232.63;105.28;;;17.00;99.90;;;;;;5070174;28;20051;-85
2022/08/27 05:37:04;;;;;;;242.77;107.20;;;17.00;99.90;;;;;;5073828;28;20103;-84
2022/08/27 05:39:53;;;;;;;213.93;103.35;;;17.10;99.90;;;;;;5072851;28;20477;-84
2022/08/27 05:42:41;;;;;;;211.98;98.28;;;17.20;99.90;;;;;;5075591;28;20060;-86
2022/08/27 05:45:41;;;;;;;220.15;99.95;;;17.20;99.90;;;;;;5080914;28;20045;-86
2022/08/27 05:48:28;;;;;;;207.00;98.65;;;17.20;99.90;;;;;;5076455;28;20353;-86
2022/08/27 05:51:21;;;;;;;184.95;91.03;;;17.30;99.90;;;;;;5073781;28;20502;-85
2022/08/27 05:54:18;;;;;;;200.40;96.43;;;17.30;99.90;;;;;;5073469;28;20041;-85
2022/08/27 05:57:05;;;;;;;203.98;96.97;;;17.30;99.90;;;;;;5058834;28;20045;-84
2022/08/27 06:03:08;;;;;;;174.60;87.35;;;17.40;99.90;;;;;;5077214;28;20077;-85
2022/08/27 06:06:03;;;;;;;174.88;88.38;;;17.50;99.90;;;;;;5074781;28;20193;-86
2022/08/27 06:08:52;;;;;;;160.27;84.30;;;17.60;99.90;;;;;;5076524;28;20044;-84
2022/08/27 06:11:41;;;;;;;153.68;82.93;;;17.70;99.90;;;;;;5066828;28;20056;-84
2022/08/27 06:14:29;;;;;;;141.02;79.85;;;17.80;99.90;;;;;;5075570;28;20044;-85
2022/08/27 06:17:16;;;;;;;125.53;75.38;;;17.90;99.90;;;;;;5075784;28;20546;-84
2022/08/27 06:20:08;;;;;;;120.70;71.20;;;18.00;99.90;;;;;;5075839;28;20052;-84
2022/08/27 06:22:58;;;;;;;105.63;66.35;;;18.00;99.90;;;;;;5062099;28;20140;-84
2022/08/27 06:25:50;;;;;;;110.82;69.90;;;18.10;99.90;;;;;;5076773;28;20048;-84
2022/08/27 06:28:40;;;;;;;118.47;71.93;;;18.20;99.90;;;;;;5074613;28;20444;-84
2022/08/27 06:31:36;;;;;;;118.40;69.50;;;18.30;99.90;;;;;;5074546;28;20055;-84
2022/08/27 06:34:28;;;;;;;108.18;67.45;;;18.30;99.90;;;;;;5072462;28;20140;-85
2022/08/27 06:37:16;;;;;;;98.15;62.70;;;18.40;49.50;;;;;;5066386;28;20063;-84
2022/08/27 06:40:03;;;;;;;102.50;64.07;;;18.50;21.20;;;;;;5087729;28;20052;-85
2022/08/27 06:42:51;;;;;;;95.03;61.83;;;18.60;1.00;;;;;;5075126;28;20041;-84
2022/08/27 06:45:41;;;;;;;83.05;57.17;;;18.70;1.00;;;;;;5060876;28;20110;-85
2022/08/27 06:48:28;;;;;;;91.60;60.90;;;18.80;1.00;;;;;;5074431;28;20090;-85
2022/08/27 06:51:23;;;;;;;78.20;55.60;;;18.80;99.90;;;;;;5074471;28;20040;-85
2022/08/27 06:54:12;;;;;;;83.57;56.30;;;18.90;99.90;;;;;;5074286;28;20051;-85
2022/08/27 06:57:00;;;;;;;78.43;56.03;;;19.10;99.90;;;;;;5074290;28;20471;-84
2022/08/27 06:59:47;;;;;;;85.53;55.65;;;19.10;99.90;;;;;;5040148;28;20170;-85
2022/08/27 07:02:35;;;;;;;81.75;57.13;;;19.10;1.00;;;;;;5070386;28;20139;-85
2022/08/27 07:05:22;;;;;;;80.32;54.53;;;19.10;1.00;;;;;;5059816;28;20056;-85
2022/08/27 07:08:09;;;;;;;73.13;51.50;;;19.20;1.00;;;;;;5064570;28;20490;-85
2022/08/27 07:10:57;;;;;;;85.55;55.22;;;19.20;99.90;;;;;;5073344;28;20040;-84
2022/08/27 07:13:48;;;;;;;81.53;53.55;;;19.10;99.90;;;;;;5074804;28;20079;-85
2022/08/27 07:16:36;;;;;;;79.60;54.17;;;19.10;1.00;;;;;;5072420;28;20040;-86
2022/08/27 07:19:27;;;;;;;72.95;52.83;;;19.10;1.00;;;;;;5073124;28;20110;-84
2022/08/27 07:22:15;;;;;;;70.60;50.47;;;19.10;1.00;;;;;;5070284;28;20110;-85
2022/08/27 07:25:02;;;;;;;74.75;52.13;;;19.30;1.00;;;;;;5073875;28;20086;-84
2022/08/27 07:27:49;;;;;;;67.22;47.67;;;19.40;99.90;;;;;;5071759;28;20086;-85
2022/08/27 07:30:37;;;;;;;67.85;46.85;;;19.50;99.90;;;;;;5070649;28;20076;-84
2022/08/27 07:33:26;;;;;;;56.55;43.67;;;19.60;99.90;;;;;;5082608;28;20455;-82
2022/08/27 07:36:15;;;;;;;57.28;42.55;;;19.80;99.90;;;;;;5059572;28;20053;-83
2022/08/27 07:39:04;;;;;;;58.20;41.88;;;20.00;25.90;;;;;;5063027;28;20040;-83
2022/08/27 07:45:01;;;;;;;52.72;39.30;;;20.10;1.00;;;;;;5072863;28;20045;-84
2022/08/27 07:47:49;;;;;;;49.80;38.72;;;20.20;1.00;;;;;;5062348;28;20040;-84
2022/08/27 07:50:36;;;;;;;53.38;38.55;;;20.20;99.90;;;;;;5080762;28;20099;-83
2022/08/27 07:53:24;;;;;;;50.65;38.58;;;20.10;1.00;;;;;;5076142;28;20063;-83
2022/08/27 07:56:12;;;;;;;52.95;39.90;;;20.10;1.00;;;;;;5073780;28;20114;-83
2022/08/27 07:58:59;;;;;;;50.97;39.42;;;20.00;99.90;;;;;;5074210;28;20121;-83
2022/08/27 08:01:47;;;;;;;56.60;42.08;;;20.00;99.90;;;;;;5074577;28;20510;-83
2022/08/27 08:04:35;;;;;;;52.83;41.45;;;19.90;1.00;;;;;;5065992;28;20391;-82
2022/08/27 08:07:23;;;;;;;53.85;40.25;;;19.80;1.00;;;;;;5059014;28;20438;-83
2022/08/27 08:10:15;;;;;;;59.25;42.95;;;19.70;1.00;;;;;;5066330;28;20123;-83
2022/08/27 08:13:06;;;;;;;55.10;41.05;;;19.60;1.00;;;;;;5071307;28;20489;-82
2022/08/27 08:15:56;;;;;;;59.38;43.75;;;19.50;1.00;;;;;;5068763;28;20049;-84
2022/08/27 08:18:43;;;;;;;56.00;42.65;;;19.40;99.90;;;;;;5067048;28;20177;-83
2022/08/27 08:21:30;;;;;;;61.67;43.17;;;19.30;99.90;;;;;;5060343;28;20044;-84
2022/08/27 08:24:20;;;;;;;60.85;43.53;;;19.30;99.90;;;;;;5071442;28;20110;-84
2022/08/27 08:27:10;;;;;;;66.82;46.20;;;19.30;99.90;;;;;;5060216;28;20529;-84
2022/08/27 08:30:01;;;;;;;56.78;43.03;;;19.20;1.00;;;;;;5072082;28;20134;-84
2022/08/27 08:32:48;;;;;;;61.10;45.95;;;19.10;1.00;;;;;;5070417;28;20126;-85
2022/08/27 08:35:39;;;;;;;69.13;47.22;;;19.10;1.00;;;;;;5087553;28;20056;-85
2022/08/27 08:38:27;;;;;;;74.22;49.13;;;19.00;6.30;;;;;;5063044;28;20468;-85
2022/08/27 08:41:37;;;;;;;71.70;47.30;;;19.10;99.90;;;;;;5069504;28;20099;-85
2022/08/27 08:44:31;;;;;;;64.43;45.17;;;19.40;99.90;;;;;;5054262;28;20075;-85
2022/08/27 08:47:18;;;;;;;58.40;42.03;;;19.80;99.90;;;;;;5062283;28;20037;-83
2022/08/27 08:50:30;;;;;;;55.38;40.22;;;20.10;1.00;;;;;;5076951;28;20048;-83
2022/08/27 08:53:49;;;;;;;60.03;39.67;;;20.40;99.90;;;;;;5065289;28;20410;-85
2022/08/27 08:56:49;;;;;;;53.55;38.58;;;20.40;1.00;;;;;;5072815;28;20052;-86
2022/08/27 08:59:46;;;;;;;54.67;39.45;;;20.60;1.00;;;;;;5072158;28;20044;-84
2022/08/27 09:02:33;;;;;;;52.65;37.42;;;20.90;99.90;;;;;;5059502;28;20487;-84
2022/08/27 09:05:22;;;;;;;55.90;37.90;;;21.10;99.90;;;;;;5082645;28;20075;-85
2022/08/27 09:08:21;;;;;;;53.22;36.88;;;21.10;1.00;;;;;;5049211;28;20452;-86
2022/08/27 09:11:59;;;;;;;47.72;34.95;;;20.90;1.00;;;;;;5077904;28;20475;-86
2022/08/27 09:14:55;;;;;;;47.67;36.60;;;20.90;1.00;;;;;;5058520;28;20479;-84
2022/08/27 09:17:46;;;;;;;48.63;35.55;;;20.90;99.90;;;;;;5075772;28;20522;-85
2022/08/27 09:20:35;;;;;;;48.53;37.28;;;20.70;99.90;;;;;;5069800;28;20383;-85
2022/08/27 09:23:44;;;;;;;58.70;39.83;;;20.60;99.90;;;;;;5086326;28;20082;-85
2022/08/27 09:26:36;;;;;;;57.38;40.47;;;20.40;99.90;;;;;;5086202;28;20460;-84
2022/08/27 09:29:30;;;;;;;62.13;42.58;;;20.20;1.00;;;;;;5080813;28;20133;-85
2022/08/27 09:32:23;;;;;;;61.28;42.97;;;20.10;1.00;;;;;;5103063;28;20028;-82
2022/08/27 09:35:12;;;;;;;63.22;42.78;;;20.00;1.00;;;;;;5076465;28;20053;-85
2022/08/27 09:38:01;;;;;;;61.83;42.22;;;20.00;1.00;;;;;;5086579;28;20059;-86
2022/08/27 09:40:51;;;;;;;70.07;43.22;;;20.10;1.00;;;;;;5088186;28;20085;-85
2022/08/27 09:43:42;;;;;;;59.03;42.40;;;20.00;1.00;;;;;;5065164;28;20072;-84
2022/08/27 09:46:30;;;;;;;69.93;41.80;;;20.00;1.00;;;;;;5060165;28;20106;-86
2022/08/27 09:49:18;;;;;;;58.13;41.53;;;20.00;1.00;;;;;;5057647;28;20052;-85
2022/08/27 09:52:06;;;;;;;64.57;43.58;;;19.90;1.00;;;;;;5074241;28;20108;-85
2022/08/27 09:54:55;;;;;;;67.30;45.03;;;19.80;1.00;;;;;;5080771;28;20459;-85
2022/08/27 09:57:42;;;;;;;64.57;44.17;;;19.70;60.90;;;;;;5083015;28;20459;-85
2022/08/27 10:00:39;;;;;;;70.65;44.60;;;19.70;99.90;;;;;;5074800;28;20056;-88
2022/08/27 10:03:29;;;;;;;67.18;42.83;;;19.80;99.90;;;;;;5074864;28;20469;-86
2022/08/27 10:06:30;;;;;;;63.00;40.53;;;20.00;99.90;;;;;;5078019;28;20324;-85
2022/08/27 10:09:46;;;;;;;;;;;;;;;;;;;;;
2022/08/27 10:12:45;;;;;;;54.28;36.10;;;20.10;1.00;;;;;;5077926;28;20064;-88
2022/08/27 10:15:50;;;;;;;49.10;34.17;;;20.10;1.00;;;;;;5069060;28;20053;-85
2022/08/27 10:19:08;;;;;;;49.17;34.67;;;20.20;1.00;;;;;;5053648;28;20060;-85
2022/08/27 10:22:01;;;;;;;47.80;31.70;;;20.40;1.00;;;;;;5073823;28;20044;-86
2022/08/27 10:25:14;;;;;;;46.00;33.58;;;20.60;99.90;;;;;;5084386;28;20061;-86
2022/08/27 10:28:26;;;;;;;45.13;32.53;;;20.40;99.90;;;;;;5104265;28;20044;-84
2022/08/27 10:31:30;;;;;;;43.33;31.55;;;20.20;99.90;;;;;;5092316;28;20045;-85
2022/08/27 10:35:15;;;;;;;44.38;31.63;;;20.30;1.00;;;;;;5087217;28;20048;-84
2022/08/27 10:38:35;;;;;;;38.42;28.98;;;20.50;1.00;;;;;;5016373;28;20145;-82
2022/08/27 10:41:39;;;;;;;42.22;31.70;;;20.40;99.90;;;;;;5077828;28;20083;-85
2022/08/27 10:44:47;;;;;;;48.60;32.80;;;19.90;99.90;;;;;;5064163;28;20041;-85
2022/08/27 10:48:25;;;;;;;43.42;31.90;;;19.60;1.00;;;;;;5067007;28;20063;-86
2022/08/27 10:59:35;;;;;;;37.13;27.52;;;19.10;99.90;;;;;;5072037;28;20032;-85
2022/08/27 11:02:47;;;;;;;38.20;26.23;;;19.10;1.00;;;;;;5056819;28;20042;-83
2022/08/27 11:06:09;;;;;;;34.03;26.35;;;19.10;1.00;;;;;;5072164;28;20053;-84
2022/08/27 11:09:11;;;;;;;31.60;25.67;;;19.20;1.00;;;;;;5073399;28;20087;-84
2022/08/27 11:12:04;;;;;;;30.25;23.25;;;19.20;1.00;;;;;;5073373;28;20486;-83
2022/08/27 11:15:25;;;;;;;33.03;24.10;;;19.20;1.00;;;;;;5077565;28;20129;-83
2022/08/27 11:18:30;;;;;;;28.98;23.30;;;19.30;1.00;;;;;;5073922;28;20052;-83
2022/08/27 11:21:42;;;;;;;26.42;22.33;;;19.30;1.00;;;;;;5080714;28;20135;-83
2022/08/27 11:24:41;;;;;;;28.58;22.95;;;19.30;1.00;;;;;;5074376;28;20131;-83
2022/08/27 11:27:32;;;;;;;31.00;23.05;;;19.30;1.00;;;;;;5069041;28;20037;-83
2022/08/27 11:30:44;;;;;;;28.48;22.73;;;19.30;1.00;;;;;;5053494;28;20041;-83
2022/08/27 11:33:39;;;;;;;26.92;22.25;;;19.30;1.00;;;;;;5072638;28;20110;-83
2022/08/27 11:36:37;;;;;;;27.50;24.08;;;19.30;99.90;;;;;;5074805;28;20095;-83
2022/08/27 11:39:33;;;;;;;29.17;23.83;;;19.40;1.00;;;;;;5073407;28;20068;-84
2022/08/27 11:42:40;;;;;;;32.97;24.85;;;19.50;1.00;;;;;;5073870;28;20048;-84
2022/08/27 11:45:33;;;;;;;30.88;22.95;;;19.50;1.00;;;;;;5088867;28;20048;-84
2022/08/27 11:48:29;;;;;;;31.27;23.90;;;19.60;1.00;;;;;;5077483;28;20083;-84
2022/08/27 11:51:35;;;;;;;30.38;24.17;;;19.70;1.00;;;;;;5054816;28;20069;-84
2022/08/27 11:54:28;;;;;;;34.28;25.33;;;19.70;58.60;;;;;;5069769;28;20403;-85
2022/08/27 11:57:32;;;;;;;31.55;25.33;;;19.60;58.60;;;;;;5044045;28;20041;-85
2022/08/27 12:00:43;;;;;;;31.02;25.73;;;19.40;99.90;;;;;;5071690;28;20049;-84
2022/08/27 12:03:33;;;;;;;40.97;27.17;;;19.40;1.00;;;;;;5069891;28;20048;-84
2022/08/27 12:06:25;;;;;;;33.30;26.30;;;19.50;99.90;;;;;;5055180;28;20056;-85
2022/08/27 12:09:19;;;;;;;32.95;26.83;;;19.70;1.00;;;;;;5056905;28;20040;-84
2022/08/27 12:12:34;;;;;;;34.03;27.95;;;19.90;78.80;;;;;;5057905;28;20036;-84
2022/08/27 12:15:31;;;;;;;30.98;25.85;;;20.10;1.00;;;;;;5069676;28;20565;-85
2022/08/27 12:18:39;;;;;;;33.80;27.65;;;20.50;84.10;;;;;;5072666;28;20455;-84
2022/08/27 12:21:57;;;;;;;33.17;25.83;;;20.70;34.10;;;;;;5073639;28;20078;-87
2022/08/27 12:25:00;;;;;;;42.83;27.17;;;20.60;99.90;;;;;;5058789;28;20056;-84
2022/08/27 12:32:20;;;;;;;32.65;26.33;;;20.40;99.90;;;;;;5067597;28;20113;-87
2022/08/27 12:35:38;;;;;;;39.05;27.70;;;20.40;99.90;;;;;;5067378;28;20201;-86
2022/08/27 12:38:32;;;;;;;32.47;26.52;;;20.30;1.80;;;;;;5054740;28;20053;-86
2022/08/27 12:41:44;;;;;;;37.75;27.48;;;20.30;1.00;;;;;;5067600;28;20045;-86
2022/08/27 12:44:32;;;;;;;37.13;24.88;;;20.50;92.60;;;;;;5078142;28;20481;-88
2022/08/27 12:47:20;;;;;;;31.60;24.08;;;20.80;96.60;;;;;;5074758;28;20355;-86
2022/08/27 12:50:07;;;;;;;32.63;23.30;;;20.90;1.00;;;;;;5061302;28;20056;-86
2022/08/27 12:53:41;;;;;;;30.35;23.73;;;20.90;99.90;;;;;;5073375;28;20060;-86
2022/08/27 12:56:31;;;;;;;27.90;22.67;;;20.60;99.90;;;;;;5051447;28;20059;-84
2022/08/27 12:59:39;;;;;;;29.73;22.77;;;20.50;99.90;;;;;;5070473;28;20162;-87
2022/08/27 13:02:53;;;;;;;29.27;23.98;;;20.50;99.90;;;;;;5084221;28;20133;-88
2022/08/27 13:05:45;;;;;;;29.25;21.73;;;20.50;1.00;;;;;;5070960;28;20106;-86
2022/08/27 13:08:35;;;;;;;34.70;23.83;;;20.70;1.00;;;;;;5072856;28;20371;-85
2022/08/27 13:11:25;;;;;;;28.42;22.25;;;20.70;1.00;;;;;;5056337;28;20055;-84
2022/08/27 13:14:18;;;;;;;25.80;21.70;;;21.00;1.00;;;;;;5060250;28;20045;-85
2022/08/27 13:17:10;;;;;;;29.70;21.85;;;21.00;99.90;;;;;;5072297;28;20055;-87
2022/08/27 13:19:59;;;;;;;32.30;23.23;;;21.00;99.90;;;;;;5071956;28;20040;-85
2022/08/27 13:22:49;;;;;;;26.58;21.23;;;21.10;99.90;;;;;;5073010;28;20041;-84
2022/08/27 13:25:36;;;;;;;25.60;20.80;;;21.20;99.90;;;;;;5051319;28;20075;-86
2022/08/27 13:28:28;;;;;;;28.83;21.55;;;21.00;3.50;;;;;;5053016;28;20340;-85
2022/08/27 13:31:17;;;;;;;25.77;21.02;;;20.70;1.00;;;;;;5070837;28;20102;-84
2022/08/27 13:34:05;;;;;;;30.33;22.88;;;20.70;38.20;;;;;;5067673;28;20068;-85
2022/08/27 13:37:04;;;;;;;29.70;22.17;;;20.70;1.00;;;;;;5072271;28;20041;-87
2022/08/27 13:39:56;;;;;;;37.75;23.73;;;20.70;1.00;;;;;;5059401;28;20056;-87
2022/08/27 13:42:43;;;;;;;30.50;22.23;;;20.70;1.00;;;;;;5078877;28;20515;-85
2022/08/27 13:45:31;;;;;;;26.02;22.08;;;20.90;4.40;;;;;;5071899;28;20410;-85
2022/08/27 13:48:21;;;;;;;26.25;20.00;;;21.00;1.00;;;;;;5073376;28;20051;-84
2022/08/27 13:51:13;;;;;;;28.52;20.42;;;21.10;99.90;;;;;;5068029;28;20037;-86
2022/08/27 13:54:13;;;;;;;27.83;20.63;;;21.10;99.90;;;;;;5065697;28;20044;-86
2022/08/27 14:05:23;;;;;;;27.83;21.08;;;20.90;99.90;;;;;;5072849;28;20032;-85
2022/08/27 14:08:12;;;;;;;23.38;19.02;;;20.80;99.90;;;;;;5075496;28;20458;-85
2022/08/27 14:11:04;;;;;;;25.15;20.13;;;20.90;99.90;;;;;;5074215;28;20049;-86
2022/08/27 14:13:56;;;;;;;25.08;19.05;;;21.00;99.90;;;;;;5063615;28;20056;-86
2022/08/27 14:21:06;;;;;;;28.83;21.05;;;21.20;99.90;;;;;;4973404;28;20039;-85
2022/08/27 14:32:44;;;;;;;23.25;18.25;;;21.30;52.40;;;;;;4902967;29;20116;-86
2022/08/27 14:35:35;;;;;;;23.92;19.02;;;21.30;99.90;;;;;;4890875;29;20055;-90
2022/08/27 14:38:28;;;;;;;23.30;18.48;;;21.40;99.90;;;;;;4966229;28;20500;-86
2022/08/27 14:41:22;;;;;;;25.98;19.70;;;21.50;99.90;;;;;;4981112;28;20051;-85
2022/08/27 14:44:09;;;;;;;22.98;19.10;;;21.50;99.90;;;;;;5059637;28;20395;-85
2022/08/27 14:46:58;;;;;;;23.75;20.08;;;21.50;99.90;;;;;;5075950;28;20048;-85
2022/08/27 14:50:01;;;;;;;25.50;18.75;;;21.40;99.90;;;;;;5073636;28;20055;-86
2022/08/27 14:52:49;;;;;;;22.60;16.92;;;21.40;99.90;;;;;;5067921;28;20049;-85
2022/08/27 14:55:38;;;;;;;23.33;17.85;;;21.60;99.90;;;;;;5068829;28;20053;-87
2022/08/27 14:58:28;;;;;;;23.35;19.15;;;21.60;99.90;;;;;;5077661;28;20098;-86
2022/08/27 15:01:21;;;;;;;24.42;18.17;;;21.60;99.90;;;;;;5055418;28;20056;-86
2022/08/27 15:04:08;;;;;;;23.05;17.67;;;21.50;99.90;;;;;;5058131;28;20048;-85
2022/08/27 15:06:56;;;;;;;25.95;17.92;;;21.50;99.90;;;;;;5075147;28;20072;-85
2022/08/27 15:09:43;;;;;;;24.30;19.50;;;21.40;99.90;;;;;;5075678;28;20048;-83
2022/08/27 15:12:33;;;;;;;29.08;20.30;;;21.40;99.90;;;;;;5072196;28;20045;-82
2022/08/27 15:15:23;;;;;;;28.98;19.50;;;21.30;99.90;;;;;;5073355;28;20037;-82
2022/08/27 15:18:19;;;;;;;28.35;19.23;;;21.30;99.90;;;;;;5070442;28;20051;-83
2022/08/27 15:21:07;;;;;;;24.00;18.67;;;21.30;99.90;;;;;;5067804;28;20060;-82
2022/08/27 15:23:58;;;;;;;21.45;18.05;;;21.20;99.90;;;;;;5054275;28;20349;-84